Time;durP1;ratioP1;P1;durP2;ratioP2;P2;SDS_P1;SDS_P2;PMS_P1;PMS_P2;Temp;Humidity;BMP_temperature;BMP_pressure;BME280_temperature;BME280_humidity;BME280_pressure;Samples;Min_cycle;Max_cycle;Signal;HPM_P1;HPM_P2
2023/01/06 00:01:18;;;;;;;6.97;2.58;;;10.70;99.90;;;;;;5010518;28;20030;-74
2023/01/06 00:03:51;;;;;;;7.38;1.90;;;10.70;99.90;;;;;;5010539;28;20018;-74
2023/01/06 00:06:18;;;;;;;7.88;2.42;;;10.70;99.90;;;;;;5005008;28;20034;-74
2023/01/06 00:08:43;;;;;;;5.53;2.17;;;10.70;99.90;;;;;;5004921;28;20044;-74
2023/01/06 00:11:11;;;;;;;8.20;2.35;;;10.70;99.90;;;;;;5012618;28;20104;-73
2023/01/06 00:13:37;;;;;;;7.03;2.47;;;10.70;99.90;;;;;;5011733;28;20018;-73
2023/01/06 00:16:05;;;;;;;6.18;2.17;;;10.60;99.90;;;;;;5011589;28;20609;-73
2023/01/06 00:18:31;;;;;;;6.75;2.30;;;10.60;99.90;;;;;;5011120;28;20034;-74
2023/01/06 00:21:00;;;;;;;7.72;3.00;;;10.60;99.90;;;;;;5010458;28;20061;-73
2023/01/06 00:23:26;;;;;;;7.45;1.90;;;10.60;99.90;;;;;;5011437;28;20026;-73
2023/01/06 00:25:52;;;;;;;5.95;1.60;;;10.60;99.90;;;;;;5007836;28;20056;-73
2023/01/06 00:28:18;;;;;;;10.68;1.73;;;10.60;99.90;;;;;;5010945;28;20474;-74
2023/01/06 00:30:43;;;;;;;6.97;1.95;;;10.60;99.90;;;;;;5009724;28;20022;-74
2023/01/06 00:33:09;;;;;;;6.97;2.13;;;10.60;99.90;;;;;;5010986;28;20026;-74
2023/01/06 00:35:34;;;;;;;6.90;2.47;;;10.60;99.90;;;;;;5022583;28;20042;-74
2023/01/06 00:38:00;;;;;;;10.55;2.58;;;10.60;99.90;;;;;;5031249;28;20152;-74
2023/01/06 00:40:25;;;;;;;4.13;1.77;;;10.70;99.90;;;;;;5031340;28;20029;-73
2023/01/06 00:42:51;;;;;;;5.30;1.50;;;10.60;99.90;;;;;;5030603;28;20756;-73
2023/01/06 00:45:16;;;;;;;6.38;1.73;;;10.60;99.90;;;;;;5031713;28;20026;-73
2023/01/06 00:47:42;;;;;;;5.35;2.03;;;10.60;99.90;;;;;;5028012;28;20029;-74
2023/01/06 00:50:08;;;;;;;9.25;2.30;;;10.60;99.90;;;;;;5025982;28;20025;-74
2023/01/06 00:52:33;;;;;;;5.00;1.70;;;10.60;99.90;;;;;;5030889;28;20030;-73
2023/01/06 00:54:59;;;;;;;5.72;2.00;;;10.70;99.90;;;;;;5030013;28;20079;-74
2023/01/06 00:57:25;;;;;;;5.60;2.45;;;10.70;99.90;;;;;;5032112;28;20065;-74
2023/01/06 00:59:50;;;;;;;5.00;2.20;;;10.70;99.90;;;;;;5029969;28;20022;-73
2023/01/06 01:02:16;;;;;;;7.07;2.55;;;10.80;99.90;;;;;;5032746;28;20036;-73
2023/01/06 01:04:42;;;;;;;6.40;2.05;;;10.80;99.90;;;;;;5030025;28;20029;-74
2023/01/06 01:07:09;;;;;;;9.60;1.80;;;10.80;99.90;;;;;;5013647;28;20022;-74
2023/01/06 01:09:35;;;;;;;5.55;1.90;;;10.80;99.90;;;;;;5022809;28;20026;-74
2023/01/06 01:12:13;;;;;;;4.50;1.70;;;10.80;99.90;;;;;;5028567;28;20063;-74
2023/01/06 01:14:48;;;;;;;10.13;1.90;;;10.80;99.90;;;;;;5026811;28;20028;-73
2023/01/06 01:17:21;;;;;;;3.78;1.77;;;10.80;99.90;;;;;;5024016;28;20099;-73
2023/01/06 01:19:49;;;;;;;6.72;1.75;;;10.90;99.90;;;;;;5028255;28;20112;-74
2023/01/06 01:22:15;;;;;;;7.40;1.95;;;10.90;99.90;;;;;;5029064;28;20029;-74
2023/01/06 01:24:40;;;;;;;9.70;1.55;;;10.90;99.90;;;;;;5026565;28;20478;-74
2023/01/06 01:27:06;;;;;;;5.05;1.58;;;10.90;99.90;;;;;;5035558;28;20543;-74
2023/01/06 01:29:32;;;;;;;5.53;1.50;;;10.90;99.90;;;;;;5029906;28;20025;-74
2023/01/06 01:31:58;;;;;;;5.28;1.77;;;10.90;99.90;;;;;;5029693;28;20355;-74
2023/01/06 01:34:24;;;;;;;6.25;1.40;;;10.90;99.90;;;;;;5030072;28;20041;-74
2023/01/06 01:36:51;;;;;;;5.47;1.48;;;10.90;99.90;;;;;;5029148;28;20064;-74
2023/01/06 01:39:19;;;;;;;4.20;1.40;;;10.90;99.90;;;;;;5007666;28;20113;-74
2023/01/06 01:41:46;;;;;;;3.40;1.30;;;10.90;99.90;;;;;;5009910;28;20033;-74
2023/01/06 01:44:49;;;;;;;3.65;1.33;;;11.00;99.90;;;;;;5010519;28;20181;-74
2023/01/06 01:47:15;;;;;;;;;;;11.00;99.90;;;;;;5010925;28;20025;-73
2023/01/06 01:49:44;;;;;;;8.50;1.00;;;10.90;99.90;;;;;;5019388;28;19988;-74
2023/01/06 01:52:11;;;;;;;2.53;0.73;;;10.90;99.90;;;;;;5015229;28;20029;-74
2023/01/06 01:54:38;;;;;;;4.78;0.90;;;10.90;99.90;;;;;;5009565;28;20021;-74
2023/01/06 01:57:09;;;;;;;4.32;0.60;;;10.90;99.90;;;;;;5002889;28;20030;-74
2023/01/06 01:59:37;;;;;;;2.88;0.80;;;10.90;99.90;;;;;;5002609;28;20022;-74
2023/01/06 02:02:03;;;;;;;5.63;0.80;;;10.90;99.90;;;;;;5003911;28;20466;-74
2023/01/06 02:04:32;;;;;;;4.60;0.65;;;10.90;99.90;;;;;;5005587;28;20025;-73
2023/01/06 02:06:57;;;;;;;4.93;0.50;;;10.90;99.90;;;;;;5011410;28;20390;-73
2023/01/06 02:09:32;;;;;;;3.97;0.55;;;10.90;99.90;;;;;;5006500;28;20025;-73
2023/01/06 02:11:58;;;;;;;2.85;0.70;;;10.90;99.90;;;;;;5007933;28;20021;-74
2023/01/06 02:14:26;;;;;;;4.57;0.60;;;10.90;99.90;;;;;;5009163;28;20501;-74
2023/01/06 02:17:29;;;;;;;7.35;0.95;;;10.90;99.90;;;;;;5000965;28;20785;-74
2023/01/06 02:20:12;;;;;;;4.68;0.60;;;10.90;99.90;;;;;;5012569;28;21048;-73
2023/01/06 02:22:49;;;;;;;4.68;0.90;;;10.90;99.90;;;;;;5010951;28;20032;-74
2023/01/06 02:25:42;;;;;;;4.55;0.90;;;10.90;99.90;;;;;;5009378;28;20389;-74
2023/01/06 02:28:44;;;;;;;4.40;0.80;;;10.90;99.90;;;;;;5009263;28;20050;-74
2023/01/06 02:31:47;;;;;;;4.05;0.68;;;10.90;99.90;;;;;;5000488;28;20116;-73
2023/01/06 02:34:31;;;;;;;;;;;10.90;99.90;;;;;;5014363;28;20064;-74
2023/01/06 02:36:59;;;;;;;2.97;0.60;;;10.80;99.90;;;;;;5002953;28;20290;-73
2023/01/06 02:39:52;;;;;;;3.03;0.80;;;10.80;99.90;;;;;;5008941;28;20374;-73
2023/01/06 02:42:33;;;;;;;4.78;0.75;;;10.80;99.90;;;;;;4988547;28;20524;-73
2023/01/06 02:45:08;;;;;;;3.70;0.87;;;10.90;99.90;;;;;;5008231;28;20030;-73
2023/01/06 02:47:47;;;;;;;4.22;0.80;;;10.80;99.90;;;;;;5021466;28;20080;-74
2023/01/06 02:50:37;;;;;;;5.70;0.95;;;10.90;99.90;;;;;;5017251;28;20041;-75
2023/01/06 02:53:20;;;;;;;4.40;0.93;;;10.80;99.90;;;;;;5017216;28;20033;-74
2023/01/06 02:55:51;;;;;;;5.65;1.55;;;10.80;99.90;;;;;;5021331;28;20401;-74
2023/01/06 02:58:30;;;;;;;3.83;0.80;;;10.80;99.90;;;;;;5015416;28;20108;-74
2023/01/06 03:01:03;;;;;;;5.30;1.35;;;10.80;99.90;;;;;;5008885;28;20025;-73
2023/01/06 03:03:32;;;;;;;4.03;0.98;;;10.80;99.90;;;;;;5020029;28;20030;-74
2023/01/06 03:06:05;;;;;;;3.67;0.93;;;10.80;99.90;;;;;;5016962;28;20029;-74
2023/01/06 03:08:31;;;;;;;3.53;0.90;;;10.80;99.90;;;;;;5018241;28;20022;-74
2023/01/06 03:10:59;;;;;;;3.97;0.80;;;10.80;99.90;;;;;;5015363;28;20028;-74
2023/01/06 03:14:03;;;;;;;2.55;0.60;;;10.80;99.90;;;;;;5015218;28;20064;-73
2023/01/06 03:16:29;;;;;;;3.42;0.70;;;10.80;99.90;;;;;;5013422;28;20509;-74
2023/01/06 03:18:55;;;;;;;3.30;0.65;;;10.80;99.90;;;;;;5014960;28;20030;-73
2023/01/06 03:21:25;;;;;;;2.78;0.47;;;10.80;99.90;;;;;;5019215;28;20022;-73
2023/01/06 03:23:51;;;;;;;3.92;0.60;;;10.80;99.90;;;;;;5011518;28;20036;-74
2023/01/06 03:26:17;;;;;;;1.70;0.32;;;10.80;99.90;;;;;;5032536;28;20029;-74
2023/01/06 03:28:43;;;;;;;5.72;0.57;;;10.80;99.90;;;;;;5022539;28;20500;-74
2023/01/06 03:31:11;;;;;;;2.65;0.73;;;10.80;99.90;;;;;;5025847;28;20033;-73
2023/01/06 03:33:55;;;;;;;4.20;0.50;;;10.80;99.90;;;;;;5009202;28;20110;-73
2023/01/06 03:36:44;;;;;;;3.15;0.40;;;10.80;99.90;;;;;;5032622;28;20049;-73
2023/01/06 03:39:28;;;;;;;4.03;0.60;;;10.80;99.90;;;;;;5034216;28;20128;-74
2023/01/06 03:45:03;;;;;;;2.40;0.50;;;10.80;99.90;;;;;;5030455;28;20032;-73
2023/01/06 03:47:45;;;;;;;4.53;0.43;;;10.80;99.90;;;;;;5033725;28;20030;-73
2023/01/06 03:50:22;;;;;;;4.80;0.70;;;10.80;99.90;;;;;;5030667;28;20096;-73
2023/01/06 03:53:14;;;;;;;3.80;0.50;;;10.80;99.90;;;;;;5032835;28;20483;-74
2023/01/06 03:55:47;;;;;;;5.30;0.40;;;10.80;99.90;;;;;;5032321;28;20029;-74
2023/01/06 03:58:15;;;;;;;4.07;0.30;;;10.80;99.90;;;;;;5029117;28;20033;-73
2023/01/06 04:00:42;;;;;;;4.95;0.38;;;10.80;99.90;;;;;;5033082;28;20450;-74
2023/01/06 04:03:10;;;;;;;5.35;0.50;;;10.80;99.90;;;;;;5032487;28;20049;-74
2023/01/06 04:05:36;;;;;;;3.45;0.43;;;10.90;99.90;;;;;;5029785;28;20096;-73
2023/01/06 04:08:01;;;;;;;1.90;0.30;;;10.90;99.90;;;;;;5042702;28;20033;-75
2023/01/06 04:10:27;;;;;;;4.32;0.40;;;10.80;99.90;;;;;;5031670;28;20060;-73
2023/01/06 04:12:53;;;;;;;3.17;0.40;;;10.90;99.90;;;;;;5029106;28;20033;-74
2023/01/06 04:15:21;;;;;;;3.78;0.45;;;10.90;99.90;;;;;;5028085;28;20033;-73
2023/01/06 04:17:48;;;;;;;2.60;0.38;;;10.90;99.90;;;;;;5025405;28;20026;-73
2023/01/06 04:20:20;;;;;;;1.67;0.38;;;10.90;99.90;;;;;;5024450;28;20053;-74
2023/01/06 04:22:45;;;;;;;4.10;1.15;;;10.90;99.90;;;;;;5031156;28;20036;-74
2023/01/06 04:25:12;;;;;;;3.92;0.40;;;10.90;99.90;;;;;;5024155;28;20022;-74
2023/01/06 04:27:38;;;;;;;2.85;0.40;;;10.90;99.90;;;;;;5009772;28;20024;-73
2023/01/06 04:30:05;;;;;;;1.52;0.30;;;10.90;99.90;;;;;;5016542;28;20045;-73
2023/01/06 04:32:30;;;;;;;1.50;0.30;;;10.90;99.90;;;;;;5019421;28;20022;-74
2023/01/06 04:34:56;;;;;;;2.05;0.40;;;10.90;99.90;;;;;;5035724;28;20469;-74
2023/01/06 04:37:21;;;;;;;1.95;0.30;;;10.90;99.90;;;;;;5032168;28;20448;-74
2023/01/06 04:39:47;;;;;;;4.70;0.38;;;10.90;99.90;;;;;;5025750;28;20029;-73
2023/01/06 04:42:12;;;;;;;4.32;0.40;;;10.90;99.90;;;;;;5029747;28;20034;-74
2023/01/06 04:44:38;;;;;;;1.48;0.40;;;10.90;99.90;;;;;;5035319;28;20026;-74
2023/01/06 04:47:04;;;;;;;3.42;0.40;;;10.90;99.90;;;;;;5031977;28;20033;-73
2023/01/06 04:49:29;;;;;;;8.30;0.98;;;10.90;99.90;;;;;;5028882;28;20036;-74
2023/01/06 04:51:55;;;;;;;4.47;0.43;;;10.90;99.90;;;;;;5031755;28;20029;-74
2023/01/06 04:54:20;;;;;;;4.70;0.60;;;10.90;99.90;;;;;;5030129;28;20482;-74
2023/01/06 04:56:46;;;;;;;3.55;0.40;;;10.90;99.90;;;;;;5031202;28;20041;-73
2023/01/06 04:59:11;;;;;;;3.15;0.40;;;10.90;99.90;;;;;;5032348;28;20036;-73
2023/01/06 05:01:37;;;;;;;2.13;0.38;;;10.90;99.90;;;;;;5012589;28;20076;-73
2023/01/06 05:04:04;;;;;;;2.53;0.30;;;10.90;99.90;;;;;;5032566;28;20018;-74
2023/01/06 05:06:30;;;;;;;2.65;0.40;;;11.00;99.90;;;;;;5028287;28;20381;-74
2023/01/06 05:08:56;;;;;;;3.67;0.32;;;11.00;99.90;;;;;;5032020;28;20017;-74
2023/01/06 05:11:23;;;;;;;2.88;0.40;;;11.00;99.90;;;;;;5039878;28;20567;-73
2023/01/06 05:13:49;;;;;;;1.00;0.30;;;11.00;99.90;;;;;;5031609;28;20390;-73
2023/01/06 05:16:18;;;;;;;3.47;0.32;;;11.00;99.90;;;;;;5031879;28;20456;-74
2023/01/06 05:18:45;;;;;;;5.40;0.40;;;11.00;99.90;;;;;;5031093;28;20381;-73
2023/01/06 05:21:11;;;;;;;3.03;0.40;;;11.00;99.90;;;;;;5031596;28;20029;-74
2023/01/06 05:23:37;;;;;;;0.98;0.20;;;11.00;99.90;;;;;;5015895;28;20033;-74
2023/01/06 05:26:03;;;;;;;1.70;0.28;;;11.00;99.90;;;;;;5032062;28;20473;-73
2023/01/06 05:28:30;;;;;;;2.97;0.40;;;11.00;99.90;;;;;;5031252;28;20100;-74
2023/01/06 05:31:00;;;;;;;1.05;0.30;;;11.00;99.90;;;;;;5030283;28;20033;-74
2023/01/06 05:33:26;;;;;;;2.40;0.40;;;11.00;99.90;;;;;;5031236;28;20025;-74
2023/01/06 05:36:12;;;;;;;1.20;0.20;;;11.00;99.90;;;;;;5032812;28;20060;-74
2023/01/06 05:38:38;;;;;;;2.25;0.30;;;11.00;99.90;;;;;;5025055;28;20029;-73
2023/01/06 05:41:05;;;;;;;1.60;0.20;;;11.00;99.90;;;;;;5028488;28;20087;-74
2023/01/06 05:43:33;;;;;;;1.45;0.17;;;11.00;99.90;;;;;;5012732;28;20513;-74
2023/01/06 05:45:59;;;;;;;2.78;0.20;;;11.00;99.90;;;;;;5031204;28;20129;-73
2023/01/06 05:48:26;;;;;;;3.10;0.30;;;11.00;99.90;;;;;;5034789;28;20028;-73
2023/01/06 05:50:52;;;;;;;2.33;0.30;;;11.10;99.90;;;;;;5027588;28;20029;-73
2023/01/06 05:53:18;;;;;;;8.38;0.70;;;11.10;99.90;;;;;;5031019;28;20440;-73
2023/01/06 05:55:43;;;;;;;5.75;0.30;;;11.10;99.90;;;;;;5029920;28;20089;-73
2023/01/06 05:58:09;;;;;;;1.80;0.20;;;11.10;99.90;;;;;;5023892;28;20512;-74
2023/01/06 06:00:34;;;;;;;1.52;0.30;;;11.10;99.90;;;;;;5031228;28;20108;-73
2023/01/06 06:03:00;;;;;;;2.00;0.60;;;11.10;99.90;;;;;;5028200;28;20587;-74
2023/01/06 06:05:25;;;;;;;0.60;0.20;;;11.10;99.90;;;;;;5030812;28;20036;-73
2023/01/06 06:07:53;;;;;;;2.15;0.30;;;11.10;99.90;;;;;;5022897;28;20036;-74
2023/01/06 06:10:19;;;;;;;5.15;0.35;;;11.20;99.90;;;;;;5026732;28;20029;-74
2023/01/06 06:12:44;;;;;;;1.55;0.30;;;11.10;99.90;;;;;;5027263;28;20598;-74
2023/01/06 06:15:10;;;;;;;1.25;0.30;;;11.10;99.90;;;;;;5025166;28;20104;-73
2023/01/06 06:17:35;;;;;;;1.85;0.30;;;11.10;99.90;;;;;;5029674;28;20034;-74
2023/01/06 06:20:02;;;;;;;0.93;0.22;;;11.10;99.90;;;;;;5028507;28;20552;-73
2023/01/06 06:22:27;;;;;;;2.50;0.20;;;11.00;99.90;;;;;;5025389;28;20025;-74
2023/01/06 06:24:53;;;;;;;0.93;0.32;;;11.00;99.90;;;;;;5029117;28;20375;-74
2023/01/06 06:27:18;;;;;;;2.97;0.80;;;11.00;99.90;;;;;;5026720;28;20022;-73
2023/01/06 06:29:44;;;;;;;1.73;0.30;;;11.00;99.90;;;;;;5027741;28;20033;-74
2023/01/06 06:32:09;;;;;;;1.17;0.40;;;11.00;99.90;;;;;;5024901;28;20030;-74
2023/01/06 06:34:35;;;;;;;2.33;0.63;;;11.00;99.90;;;;;;5028206;28;20076;-73
2023/01/06 06:37:00;;;;;;;1.45;0.30;;;11.00;99.90;;;;;;5028702;28;20037;-73
2023/01/06 06:39:26;;;;;;;2.20;0.40;;;11.00;99.90;;;;;;5027841;28;20056;-74
2023/01/06 06:41:52;;;;;;;1.02;0.20;;;10.90;99.90;;;;;;5029496;28;20095;-73
2023/01/06 06:44:17;;;;;;;1.88;0.40;;;10.90;99.90;;;;;;5030986;28;20026;-73
2023/01/06 06:46:43;;;;;;;2.30;0.40;;;10.80;99.90;;;;;;5029583;28;20124;-73
2023/01/06 06:49:09;;;;;;;0.90;0.40;;;10.90;99.90;;;;;;5029952;28;20026;-73
2023/01/06 06:51:34;;;;;;;1.85;0.60;;;10.90;99.90;;;;;;5030754;28;20026;-73
2023/01/06 06:54:00;;;;;;;1.25;0.32;;;10.90;99.90;;;;;;5028942;28;20459;-74
2023/01/06 06:56:25;;;;;;;2.58;0.30;;;10.90;99.90;;;;;;5030365;28;20479;-74
2023/01/06 06:58:51;;;;;;;1.83;0.35;;;10.90;99.90;;;;;;5028771;28;20028;-74
2023/01/06 07:01:18;;;;;;;0.82;0.30;;;10.90;99.90;;;;;;5030122;28;20059;-73
2023/01/06 07:03:44;;;;;;;2.45;0.40;;;11.00;99.90;;;;;;5027022;28;20025;-74
2023/01/06 07:06:19;;;;;;;2.50;0.30;;;10.90;99.90;;;;;;5026585;28;20060;-74
2023/01/06 07:08:46;;;;;;;1.20;0.40;;;10.90;99.90;;;;;;5027290;28;20017;-74
2023/01/06 07:11:12;;;;;;;1.42;0.45;;;10.90;99.90;;;;;;5029559;28;20068;-73
2023/01/06 07:13:38;;;;;;;1.05;0.40;;;10.90;99.90;;;;;;5030131;28;20021;-74
2023/01/06 07:16:04;;;;;;;10.10;0.70;;;10.80;99.90;;;;;;5027965;28;20041;-74
2023/01/06 07:18:29;;;;;;;1.42;0.40;;;10.80;99.90;;;;;;5024212;28;20091;-74
2023/01/06 07:20:55;;;;;;;1.63;0.60;;;10.70;99.90;;;;;;5027248;28;20021;-76
2023/01/06 07:23:21;;;;;;;2.65;0.50;;;10.70;99.90;;;;;;5028347;28;20026;-74
2023/01/06 07:25:51;;;;;;;1.45;0.50;;;10.70;99.90;;;;;;5027031;28;20054;-74
2023/01/06 07:28:17;;;;;;;1.30;0.50;;;10.70;99.90;;;;;;5027477;28;20497;-74
2023/01/06 07:30:43;;;;;;;2.42;0.60;;;10.70;99.90;;;;;;5026028;28;20029;-74
2023/01/06 07:33:08;;;;;;;1.30;0.52;;;10.70;99.90;;;;;;5021002;28;20156;-75
2023/01/06 07:35:34;;;;;;;1.55;0.60;;;10.70;99.90;;;;;;5027039;28;20152;-80
2023/01/06 07:38:04;;;;;;;1.58;0.90;;;10.60;99.90;;;;;;5023564;28;20380;-73
2023/01/06 07:40:30;;;;;;;1.88;0.95;;;10.70;99.90;;;;;;5027998;28;20508;-75
2023/01/06 07:42:55;;;;;;;2.15;0.90;;;10.70;99.90;;;;;;5031926;28;20021;-74
2023/01/06 07:45:21;;;;;;;2.53;1.15;;;10.70;99.90;;;;;;5031846;28;20060;-74
2023/01/06 07:47:46;;;;;;;3.20;1.00;;;10.70;99.90;;;;;;5028253;28;20033;-74
2023/01/06 07:50:12;;;;;;;3.20;1.30;;;10.70;99.90;;;;;;5031497;28;20026;-74
2023/01/06 07:52:37;;;;;;;3.17;1.55;;;10.70;99.90;;;;;;5028229;28;20025;-74
2023/01/06 07:55:03;;;;;;;3.42;1.70;;;10.60;99.90;;;;;;5029563;28;20029;-74
2023/01/06 07:57:29;;;;;;;6.25;2.10;;;10.60;99.90;;;;;;5032166;28;20112;-73
2023/01/06 07:59:55;;;;;;;2.75;1.85;;;10.60;99.90;;;;;;5030277;28;20040;-74
2023/01/06 08:02:21;;;;;;;3.80;2.22;;;10.60;99.90;;;;;;5026810;28;20079;-74
2023/01/06 08:04:47;;;;;;;3.08;2.30;;;10.60;99.90;;;;;;5030206;28;20036;-73
2023/01/06 08:07:14;;;;;;;4.68;2.78;;;10.60;99.90;;;;;;5025645;28;20037;-72
2023/01/06 08:09:40;;;;;;;4.22;2.92;;;10.60;99.90;;;;;;5029285;28;20128;-72
2023/01/06 08:12:06;;;;;;;4.43;2.90;;;10.60;99.90;;;;;;5030849;28;20033;-72
2023/01/06 08:14:31;;;;;;;2.97;2.67;;;10.60;99.90;;;;;;5031117;28;20056;-73
2023/01/06 08:16:57;;;;;;;5.85;3.05;;;10.60;99.90;;;;;;5028546;28;20391;-72
2023/01/06 08:19:22;;;;;;;4.32;3.15;;;10.60;99.90;;;;;;5030302;28;20025;-74
2023/01/06 08:21:48;;;;;;;5.00;3.45;;;10.60;99.90;;;;;;5030264;28;20026;-71
2023/01/06 08:24:13;;;;;;;4.43;4.03;;;10.70;99.90;;;;;;5030610;28;20017;-72
2023/01/06 08:26:39;;;;;;;5.25;3.88;;;10.70;99.90;;;;;;5031087;28;20057;-72
2023/01/06 08:29:05;;;;;;;4.38;3.78;;;10.70;99.90;;;;;;5023382;28;20512;-72
2023/01/06 08:31:30;;;;;;;3.88;3.47;;;10.70;99.90;;;;;;5014869;28;20034;-73
2023/01/06 08:33:56;;;;;;;5.22;4.35;;;10.80;99.90;;;;;;5013075;28;20030;-73
2023/01/06 08:36:23;;;;;;;5.38;3.83;;;10.80;99.90;;;;;;5009664;28;20054;-73
2023/01/06 08:38:49;;;;;;;5.20;4.07;;;10.80;99.90;;;;;;5008699;28;20029;-73
2023/01/06 08:41:15;;;;;;;4.78;4.03;;;10.70;99.90;;;;;;5011950;28;20479;-73
2023/01/06 08:43:42;;;;;;;4.38;3.88;;;10.70;99.90;;;;;;5011057;28;20032;-73
2023/01/06 08:46:09;;;;;;;6.80;4.63;;;10.70;99.90;;;;;;5010652;28;20049;-74
2023/01/06 08:48:35;;;;;;;4.82;4.32;;;10.70;99.90;;;;;;5009353;28;20025;-74
2023/01/06 08:51:12;;;;;;;4.90;4.40;;;10.70;99.90;;;;;;5006949;28;20053;-74
2023/01/06 08:53:38;;;;;;;6.80;4.50;;;10.60;99.90;;;;;;5002733;28;20129;-73
2023/01/06 08:56:10;;;;;;;5.18;4.60;;;10.60;99.90;;;;;;5011299;28;20113;-73
2023/01/06 08:58:35;;;;;;;5.37;4.90;;;10.60;99.90;;;;;;5010716;28;20029;-73
2023/01/06 09:01:01;;;;;;;5.85;4.60;;;10.60;99.90;;;;;;5006821;28;20030;-73
2023/01/06 09:03:26;;;;;;;6.72;4.72;;;10.50;99.90;;;;;;5005050;28;20097;-73
2023/01/06 09:05:54;;;;;;;5.35;4.72;;;10.60;99.90;;;;;;5004190;28;20038;-73
2023/01/06 09:08:20;;;;;;;5.32;4.38;;;10.60;99.90;;;;;;5007621;28;20065;-73
2023/01/06 09:10:46;;;;;;;7.35;4.75;;;10.60;99.90;;;;;;5007714;28;20029;-73
2023/01/06 09:13:11;;;;;;;7.72;5.38;;;10.60;99.90;;;;;;5007717;28;20101;-74
2023/01/06 09:15:41;;;;;;;9.10;5.55;;;10.60;99.90;;;;;;4998684;28;20651;-73
2023/01/06 09:18:07;;;;;;;7.57;5.75;;;10.50;99.90;;;;;;5010046;28;20030;-73
2023/01/06 09:20:34;;;;;;;6.65;4.53;;;10.40;99.90;;;;;;5008887;28;20018;-74
2023/01/06 09:22:59;;;;;;;5.57;5.07;;;10.40;99.90;;;;;;5009486;28;20042;-73
2023/01/06 09:25:25;;;;;;;5.88;4.22;;;10.40;99.90;;;;;;5010332;28;20037;-73
2023/01/06 09:27:51;;;;;;;6.60;4.97;;;10.40;99.90;;;;;;5007763;28;20048;-73
2023/01/06 09:30:16;;;;;;;6.45;3.83;;;10.50;99.90;;;;;;5007713;28;20081;-73
2023/01/06 09:32:42;;;;;;;9.80;3.85;;;10.50;99.90;;;;;;5007334;28;20029;-74
2023/01/06 09:35:08;;;;;;;5.80;3.42;;;10.60;99.90;;;;;;5018988;28;20128;-72
2023/01/06 09:37:34;;;;;;;7.35;3.28;;;10.70;99.90;;;;;;5028615;28;20478;-73
2023/01/06 09:39:59;;;;;;;3.97;2.50;;;10.60;99.90;;;;;;5026711;28;20017;-73
2023/01/06 09:43:18;;;;;;;5.93;2.50;;;10.50;99.90;;;;;;5029611;28;20077;-73
2023/01/06 09:45:52;;;;;;;3.70;1.80;;;10.50;99.90;;;;;;4967984;28;20122;-73
2023/01/06 09:48:24;;;;;;;8.38;2.03;;;10.40;99.90;;;;;;5018898;28;20124;-72
2023/01/06 09:50:56;;;;;;;3.30;1.17;;;10.40;99.90;;;;;;5026108;28;20415;-73
2023/01/06 09:53:27;;;;;;;3.33;1.00;;;10.50;99.90;;;;;;5024924;28;20041;-73
2023/01/06 09:56:00;;;;;;;4.65;0.73;;;10.50;99.90;;;;;;5026280;28;20638;-73
2023/01/06 09:58:51;;;;;;;8.07;1.10;;;10.50;99.90;;;;;;5030229;28;20029;-73
2023/01/06 10:01:26;;;;;;;4.40;0.93;;;10.60;99.90;;;;;;5028492;28;20029;-72
2023/01/06 10:03:52;;;;;;;5.70;0.82;;;10.70;99.90;;;;;;5018659;28;20512;-75
2023/01/06 10:06:36;;;;;;;5.78;0.82;;;10.70;99.90;;;;;;5030137;28;20107;-73
2023/01/06 10:09:16;;;;;;;5.03;1.00;;;10.80;99.90;;;;;;5027827;28;20524;-73
2023/01/06 10:11:51;;;;;;;9.90;0.90;;;10.80;99.90;;;;;;5029908;28;20044;-73
2023/01/06 10:14:40;;;;;;;4.75;0.90;;;10.90;99.90;;;;;;5029534;28;20044;-73
2023/01/06 10:17:51;;;;;;;3.45;0.50;;;10.80;99.90;;;;;;5026376;28;20059;-73
2023/01/06 10:20:27;;;;;;;5.65;0.60;;;10.90;99.90;;;;;;5021893;28;20081;-73
2023/01/06 10:23:06;;;;;;;3.28;0.50;;;10.90;99.90;;;;;;5028575;28;20401;-73
2023/01/06 10:25:43;;;;;;;6.15;0.60;;;10.90;99.90;;;;;;5012423;28;20036;-73
2023/01/06 10:28:19;;;;;;;5.93;0.60;;;11.00;99.90;;;;;;5028663;28;20698;-73
2023/01/06 10:30:50;;;;;;;2.58;0.60;;;11.00;99.90;;;;;;5010210;28;20063;-73
2023/01/06 10:33:29;;;;;;;5.13;0.68;;;11.00;99.90;;;;;;5029680;28;20033;-73
2023/01/06 10:35:56;;;;;;;6.50;0.90;;;11.00;99.90;;;;;;5025635;28;20045;-73
2023/01/06 10:38:36;;;;;;;5.88;0.52;;;11.00;99.90;;;;;;5029344;28;20069;-73
2023/01/06 10:41:23;;;;;;;5.78;0.60;;;11.10;99.90;;;;;;5033943;28;20105;-73
2023/01/06 10:43:49;;;;;;;5.97;0.60;;;11.10;99.90;;;;;;5037040;28;20477;-73
2023/01/06 10:46:15;;;;;;;6.13;1.00;;;11.10;99.90;;;;;;5026694;28;20021;-73
2023/01/06 10:48:42;;;;;;;2.33;0.40;;;11.20;99.90;;;;;;5029076;28;20123;-72
2023/01/06 10:51:30;;;;;;;6.20;0.50;;;11.10;99.90;;;;;;5033118;28;20056;-73
2023/01/06 10:53:59;;;;;;;2.15;0.30;;;11.20;99.90;;;;;;5030594;28;20373;-74
2023/01/06 10:56:29;;;;;;;2.78;0.32;;;11.30;99.90;;;;;;5033789;28;20088;-73
2023/01/06 10:59:01;;;;;;;3.15;0.40;;;11.30;99.90;;;;;;5025098;28;20105;-73
2023/01/06 11:01:28;;;;;;;5.22;0.50;;;11.30;99.90;;;;;;5038750;28;20071;-73
2023/01/06 11:04:25;;;;;;;4.28;0.63;;;11.40;99.90;;;;;;5033283;28;20022;-73
2023/01/06 11:06:57;;;;;;;3.42;0.50;;;11.40;99.90;;;;;;5020783;28;20115;-73
2023/01/06 11:09:29;;;;;;;;;;;11.40;99.90;;;;;;5035525;28;20030;-73
2023/01/06 11:11:57;;;;;;;6.40;0.55;;;11.40;99.90;;;;;;5030040;28;19959;-73
2023/01/06 11:14:27;;;;;;;9.45;0.60;;;11.40;99.90;;;;;;5023983;28;20466;-73
2023/01/06 11:17:05;;;;;;;5.40;0.40;;;11.50;99.90;;;;;;5031543;28;20026;-73
2023/01/06 11:19:40;;;;;;;3.88;0.43;;;11.60;99.90;;;;;;5023835;28;20033;-75
2023/01/06 11:22:33;;;;;;;7.95;0.50;;;11.60;99.90;;;;;;5026790;28;20021;-73
2023/01/06 11:24:59;;;;;;;6.88;0.45;;;11.70;99.90;;;;;;5031255;28;20018;-73
2023/01/06 11:27:24;;;;;;;8.80;1.05;;;11.70;99.90;;;;;;5031535;28;20033;-73
2023/01/06 11:29:50;;;;;;;5.80;0.50;;;11.70;99.90;;;;;;5035286;28;20064;-73
2023/01/06 11:32:25;;;;;;;5.05;0.47;;;11.70;99.90;;;;;;5029361;28;20036;-73
2023/01/06 11:35:00;;;;;;;3.60;0.50;;;11.80;99.90;;;;;;5027234;28;20041;-73
2023/01/06 11:37:37;;;;;;;5.10;1.08;;;11.90;99.90;;;;;;5019316;28;20037;-73
2023/01/06 11:40:13;;;;;;;2.85;0.20;;;11.90;99.90;;;;;;5032056;28;20068;-73
2023/01/06 11:42:39;;;;;;;2.88;0.20;;;11.90;99.90;;;;;;5028416;28;20029;-73
2023/01/06 11:45:05;;;;;;;2.50;0.20;;;11.90;99.90;;;;;;5024409;28;20025;-73
2023/01/06 11:47:31;;;;;;;2.08;0.13;;;11.90;99.90;;;;;;5025553;28;20029;-74
2023/01/06 11:49:59;;;;;;;2.78;0.20;;;11.90;99.90;;;;;;5023971;28;20398;-73
2023/01/06 11:52:30;;;;;;;1.75;0.20;;;11.80;99.90;;;;;;5032356;28;20072;-73
2023/01/06 11:55:07;;;;;;;2.70;0.30;;;11.80;99.90;;;;;;5047387;28;20481;-73
2023/01/06 11:57:47;;;;;;;2.45;0.40;;;11.80;99.90;;;;;;5022099;28;20101;-73
2023/01/06 12:00:33;;;;;;;2.55;0.35;;;11.90;99.90;;;;;;5039810;28;20029;-73
2023/01/06 12:03:18;;;;;;;3.45;0.20;;;12.00;99.90;;;;;;5034667;28;20120;-73
2023/01/06 12:06:29;;;;;;;3.97;0.30;;;12.00;99.90;;;;;;5025956;28;20036;-74
2023/01/06 12:09:22;;;;;;;3.42;0.20;;;12.00;99.90;;;;;;5020878;28;20494;-74
2023/01/06 12:11:57;;;;;;;4.38;0.43;;;12.00;99.90;;;;;;5015185;28;20113;-73
2023/01/06 12:14:44;;;;;;;2.53;0.20;;;12.00;99.90;;;;;;5031872;28;20025;-73
2023/01/06 12:17:49;;;;;;;1.48;0.20;;;11.90;99.90;;;;;;5029614;28;20052;-73
2023/01/06 12:20:44;;;;;;;1.40;0.10;;;12.00;99.90;;;;;;5023109;28;20052;-73
2023/01/06 12:23:09;;;;;;;1.95;0.25;;;12.10;99.90;;;;;;5026520;28;20065;-73
2023/01/06 12:25:40;;;;;;;2.47;0.10;;;12.10;99.90;;;;;;5018779;28;20486;-73
2023/01/06 12:28:28;;;;;;;0.93;0.10;;;12.20;99.90;;;;;;5022293;28;20025;-74
2023/01/06 12:31:05;;;;;;;2.92;0.15;;;12.30;99.90;;;;;;5016885;28;20104;-74
2023/01/06 12:33:53;;;;;;;2.22;0.10;;;12.30;99.90;;;;;;5017345;28;20033;-74
2023/01/06 12:36:32;;;;;;;2.30;0.20;;;12.40;99.90;;;;;;5030216;28;20057;-73
2023/01/06 12:39:02;;;;;;;1.30;0.10;;;12.40;99.90;;;;;;5030379;28;20022;-74
2023/01/06 12:41:50;;;;;;;2.17;0.10;;;12.40;99.90;;;;;;5031183;28;20028;-73
2023/01/06 12:44:52;;;;;;;1.65;0.10;;;12.40;99.90;;;;;;5016586;28;20060;-73
2023/01/06 12:47:33;;;;;;;1.23;0.10;;;12.50;99.90;;;;;;5026929;28;20025;-73
2023/01/06 12:50:38;;;;;;;3.03;0.17;;;12.60;99.90;;;;;;5031509;28;20635;-74
2023/01/06 12:53:26;;;;;;;2.63;0.22;;;12.60;99.90;;;;;;5029900;28;20032;-73
2023/01/06 12:56:05;;;;;;;3.30;0.30;;;12.70;99.90;;;;;;5030369;28;20033;-73
2023/01/06 12:58:41;;;;;;;3.10;0.10;;;12.70;99.90;;;;;;5030045;28;20080;-73
2023/01/06 13:01:19;;;;;;;3.75;0.47;;;12.70;99.90;;;;;;5019119;28;20021;-73
2023/01/06 13:04:12;;;;;;;3.10;0.30;;;12.70;99.90;;;;;;5031656;28;20500;-73
2023/01/06 13:06:53;;;;;;;2.30;0.17;;;12.70;99.90;;;;;;5029571;28;20033;-73
2023/01/06 13:09:53;;;;;;;2.03;0.10;;;12.60;99.90;;;;;;5011395;28;20509;-73
2023/01/06 13:13:03;;;;;;;3.45;0.20;;;12.60;99.90;;;;;;5026612;28;20044;-73